sensor_id;sensor_type;location;lat;lon;timestamp;pressure;altitude;pressure_sealevel;temperature;humidity
30614;BME280;17381;51.690;5.270;2022-10-22T11:12:20;101331.16;;;20.42;66.74
30614;BME280;17381;51.690;5.270;2022-10-22T11:18:19;101333.66;;;21.47;64.19
30614;BME280;17381;51.690;5.270;2022-10-22T11:21:03;101327.97;;;22.08;63.65
30614;BME280;17381;51.690;5.270;2022-10-22T11:34:55;101285.94;;;21.95;60.37
30614;BME280;17381;51.690;5.270;2022-10-22T11:37:40;101311.63;;;22.65;59.55
30614;BME280;17381;51.690;5.270;2022-10-22T11:46:48;101319.38;;;23.21;56.70
30614;BME280;17381;51.690;5.270;2022-10-22T11:49:46;101321.50;;;22.77;55.86
30614;BME280;17381;51.690;5.270;2022-10-22T11:55:48;101328.06;;;22.06;56.84
30614;BME280;17381;51.690;5.270;2022-10-22T12:01:25;101324.03;;;21.45;58.08
30614;BME280;17381;51.690;5.270;2022-10-22T12:07:01;101319.31;;;20.77;59.18
30614;BME280;17381;51.690;5.270;2022-10-22T12:13:54;101334.44;;;20.01;60.61
30614;BME280;17381;51.690;5.270;2022-10-22T12:16:36;101340.84;;;19.67;61.28
30614;BME280;17381;51.690;5.270;2022-10-22T12:19:34;101337.84;;;19.56;62.18
30614;BME280;17381;51.690;5.270;2022-10-22T12:24:35;101324.56;;;19.38;63.31
30614;BME280;17381;51.690;5.270;2022-10-22T12:27:25;101343.25;;;19.38;62.75
30614;BME280;17381;51.690;5.270;2022-10-22T12:33:22;101347.31;;;19.46;63.44
30614;BME280;17381;51.690;5.270;2022-10-22T12:36:05;101339.03;;;20.30;63.93
30614;BME280;17381;51.690;5.270;2022-10-22T12:38:47;101335.56;;;21.31;63.22
30614;BME280;17381;51.690;5.270;2022-10-22T12:41:35;101342.41;;;22.32;60.46
30614;BME280;17381;51.690;5.270;2022-10-22T12:44:14;101334.50;;;23.09;57.90
30614;BME280;17381;51.690;5.270;2022-10-22T12:46:49;101295.50;;;23.42;56.00
30614;BME280;17381;51.690;5.270;2022-10-22T12:49:29;101331.03;;;23.69;54.71
30614;BME280;17381;51.690;5.270;2022-10-22T12:52:19;101341.59;;;24.21;54.73
30614;BME280;17381;51.690;5.270;2022-10-22T12:55:01;101341.31;;;24.83;54.73
30614;BME280;17381;51.690;5.270;2022-10-22T12:57:45;101321.28;;;24.87;54.49
30614;BME280;17381;51.690;5.270;2022-10-22T13:00:43;101318.34;;;25.58;53.41
30614;BME280;17381;51.690;5.270;2022-10-22T13:03:34;101320.06;;;25.59;52.39
30614;BME280;17381;51.690;5.270;2022-10-22T13:12:33;101314.44;;;25.06;51.10
30614;BME280;17381;51.690;5.270;2022-10-22T13:15:31;101321.03;;;25.69;52.02
30614;BME280;17381;51.690;5.270;2022-10-22T13:22:20;101307.41;;;25.71;49.74
30614;BME280;17381;51.690;5.270;2022-10-22T13:32:51;101324.19;;;23.65;50.31
30614;BME280;17381;51.690;5.270;2022-10-22T13:35:44;101324.28;;;23.14;51.49
30614;BME280;17381;51.690;5.270;2022-10-22T13:38:27;101285.34;;;22.83;52.25
30614;BME280;17381;51.690;5.270;2022-10-22T13:41:30;101285.03;;;22.75;52.59
30614;BME280;17381;51.690;5.270;2022-10-22T13:44:09;101320.81;;;22.61;52.75
30614;BME280;17381;51.690;5.270;2022-10-22T13:47:17;101320.13;;;22.32;53.50
30614;BME280;17381;51.690;5.270;2022-10-22T13:50:13;101281.81;;;21.77;54.56
30614;BME280;17381;51.690;5.270;2022-10-22T13:52:57;101315.47;;;21.94;55.13
30614;BME280;17381;51.690;5.270;2022-10-22T13:56:20;101308.88;;;21.72;55.28
30614;BME280;17381;51.690;5.270;2022-10-22T13:59:09;101320.13;;;21.50;55.40
30614;BME280;17381;51.690;5.270;2022-10-22T14:01:46;101327.56;;;21.31;55.61
30614;BME280;17381;51.690;5.270;2022-10-22T14:04:27;101322.03;;;21.20;56.03
30614;BME280;17381;51.690;5.270;2022-10-22T14:07:20;101286.69;;;21.00;56.29
30614;BME280;17381;51.690;5.270;2022-10-22T14:10:13;101325.91;;;21.14;56.15
30614;BME280;17381;51.690;5.270;2022-10-22T14:12:57;101335.56;;;20.88;56.53
30614;BME280;17381;51.690;5.270;2022-10-22T14:15:50;101332.75;;;20.75;57.12
30614;BME280;17381;51.690;5.270;2022-10-22T14:18:46;101337.25;;;20.60;57.52
30614;BME280;17381;51.690;5.270;2022-10-22T14:21:34;101343.28;;;20.48;57.70
30614;BME280;17381;51.690;5.270;2022-10-22T14:24:45;101341.34;;;20.36;58.25
30614;BME280;17381;51.690;5.270;2022-10-22T14:27:34;101350.06;;;20.23;58.78
30614;BME280;17381;51.690;5.270;2022-10-22T14:30:11;101310.84;;;19.94;58.88
30614;BME280;17381;51.690;5.270;2022-10-22T14:32:56;101330.13;;;19.99;58.61
30614;BME280;17381;51.690;5.270;2022-10-22T14:35:41;101349.22;;;20.07;58.85
30614;BME280;17381;51.690;5.270;2022-10-22T14:38:26;101360.25;;;20.01;58.82
30614;BME280;17381;51.690;5.270;2022-10-22T14:41:03;101356.13;;;19.95;59.05
30614;BME280;17381;51.690;5.270;2022-10-22T14:46:33;101346.84;;;19.87;59.79
30614;BME280;17381;51.690;5.270;2022-10-22T14:49:21;101361.03;;;19.87;59.93
30614;BME280;17381;51.690;5.270;2022-10-22T14:52:02;101319.59;;;19.64;60.38
30614;BME280;17381;51.690;5.270;2022-10-22T14:54:49;101352.84;;;19.74;60.41
30614;BME280;17381;51.690;5.270;2022-10-22T14:57:35;101365.06;;;19.63;60.34
30614;BME280;17381;51.690;5.270;2022-10-22T15:00:16;101351.44;;;19.51;60.65
30614;BME280;17381;51.690;5.270;2022-10-22T15:03:00;101359.84;;;19.44;61.04
30614;BME280;17381;51.690;5.270;2022-10-22T15:05:49;101367.09;;;19.42;61.15
30614;BME280;17381;51.690;5.270;2022-10-22T15:08:32;101379.94;;;19.33;61.56
30614;BME280;17381;51.690;5.270;2022-10-22T15:11:16;101368.34;;;19.18;61.39
30614;BME280;17381;51.690;5.270;2022-10-22T15:14:06;101371.84;;;19.19;61.59
30614;BME280;17381;51.690;5.270;2022-10-22T15:16:49;101348.91;;;18.99;62.01
30614;BME280;17381;51.690;5.270;2022-10-22T15:19:33;101373.97;;;19.12;62.08
30614;BME280;17381;51.690;5.270;2022-10-22T15:22:24;101375.00;;;19.10;62.34
30614;BME280;17381;51.690;5.270;2022-10-22T15:25:13;101375.38;;;19.20;62.64
30614;BME280;17381;51.690;5.270;2022-10-22T15:27:54;101381.31;;;19.25;62.77
30614;BME280;17381;51.690;5.270;2022-10-22T15:30:30;101378.91;;;19.20;62.86
30614;BME280;17381;51.690;5.270;2022-10-22T15:33:28;101391.13;;;19.24;62.95
30614;BME280;17381;51.690;5.270;2022-10-22T15:36:17;101393.97;;;19.21;63.25
30614;BME280;17381;51.690;5.270;2022-10-22T15:39:29;101377.66;;;19.10;62.93
30614;BME280;17381;51.690;5.270;2022-10-22T15:42:17;101374.03;;;18.95;62.83
30614;BME280;17381;51.690;5.270;2022-10-22T15:45:14;101377.16;;;18.86;63.05
30614;BME280;17381;51.690;5.270;2022-10-22T15:48:27;101383.03;;;18.75;63.76
30614;BME280;17381;51.690;5.270;2022-10-22T15:54:55;101373.59;;;18.33;64.31
30614;BME280;17381;51.690;5.270;2022-10-22T15:58:05;101386.50;;;18.23;64.84
30614;BME280;17381;51.690;5.270;2022-10-22T16:04:10;101379.94;;;17.94;65.52
30614;BME280;17381;51.690;5.270;2022-10-22T16:07:04;101376.91;;;17.83;65.80
30614;BME280;17381;51.690;5.270;2022-10-22T16:09:49;101385.41;;;17.71;66.14
30614;BME280;17381;51.690;5.270;2022-10-22T16:12:41;101386.88;;;17.59;66.16
30614;BME280;17381;51.690;5.270;2022-10-22T16:15:37;101388.28;;;17.47;66.36
30614;BME280;17381;51.690;5.270;2022-10-22T16:18:45;101393.22;;;17.36;66.44
30614;BME280;17381;51.690;5.270;2022-10-22T16:32:11;101396.88;;;16.72;67.66
30614;BME280;17381;51.690;5.270;2022-10-22T16:35:40;101397.97;;;16.68;67.84
30614;BME280;17381;51.690;5.270;2022-10-22T16:38:35;101406.97;;;16.64;68.14
30614;BME280;17381;51.690;5.270;2022-10-22T16:41:54;101406.63;;;16.51;68.28
30614;BME280;17381;51.690;5.270;2022-10-22T16:44:44;101402.63;;;16.41;68.43
30614;BME280;17381;51.690;5.270;2022-10-22T16:47:37;101397.31;;;16.41;68.52
30614;BME280;17381;51.690;5.270;2022-10-22T16:50:25;101399.34;;;16.34;68.75
30614;BME280;17381;51.690;5.270;2022-10-22T16:53:02;101398.06;;;16.22;68.87
30614;BME280;17381;51.690;5.270;2022-10-22T16:56:08;101396.56;;;16.15;68.83
30614;BME280;17381;51.690;5.270;2022-10-22T16:58:53;101416.06;;;16.14;69.22
30614;BME280;17381;51.690;5.270;2022-10-22T17:01:45;101407.66;;;16.03;69.40
30614;BME280;17381;51.690;5.270;2022-10-22T17:04:45;101418.28;;;16.03;69.55
30614;BME280;17381;51.690;5.270;2022-10-22T17:07:58;101426.44;;;15.98;69.70
30614;BME280;17381;51.690;5.270;2022-10-22T17:10:39;101419.56;;;15.92;69.94
30614;BME280;17381;51.690;5.270;2022-10-22T17:13:55;101429.44;;;15.89;69.95
30614;BME280;17381;51.690;5.270;2022-10-22T17:16:57;101434.78;;;15.87;69.98
30614;BME280;17381;51.690;5.270;2022-10-22T17:19:46;101433.31;;;15.80;70.22
30614;BME280;17381;51.690;5.270;2022-10-22T17:22:31;101416.91;;;15.69;70.28
30614;BME280;17381;51.690;5.270;2022-10-22T17:28:29;101431.06;;;15.68;70.61
30614;BME280;17381;51.690;5.270;2022-10-22T17:31:24;101431.84;;;15.72;70.57
30614;BME280;17381;51.690;5.270;2022-10-22T17:34:15;101386.31;;;15.37;70.52
30614;BME280;17381;51.690;5.270;2022-10-22T17:40:30;101428.19;;;15.51;70.79
30614;BME280;17381;51.690;5.270;2022-10-22T17:43:20;101434.28;;;15.53;70.80
30614;BME280;17381;51.690;5.270;2022-10-22T18:04:58;101440.94;;;15.16;71.92
30614;BME280;17381;51.690;5.270;2022-10-22T18:30:16;101454.28;;;14.86;72.74
30614;BME280;17381;51.690;5.270;2022-10-22T18:32:56;101465.47;;;14.94;72.87
30614;BME280;17381;51.690;5.270;2022-10-22T18:35:50;101467.16;;;14.97;72.65
30614;BME280;17381;51.690;5.270;2022-10-22T18:38:33;101460.09;;;14.97;72.93
30614;BME280;17381;51.690;5.270;2022-10-22T18:41:34;101464.47;;;14.98;72.58
30614;BME280;17381;51.690;5.270;2022-10-22T18:44:33;101429.97;;;14.75;72.76
30614;BME280;17381;51.690;5.270;2022-10-22T18:47:49;101457.66;;;14.91;72.78
30614;BME280;17381;51.690;5.270;2022-10-22T18:50:32;101433.75;;;14.68;72.79
30614;BME280;17381;51.690;5.270;2022-10-22T18:53:01;101474.50;;;14.89;72.86
30614;BME280;17381;51.690;5.270;2022-10-22T18:56:26;101463.19;;;14.83;72.67
30614;BME280;17381;51.690;5.270;2022-10-22T18:59:26;101464.13;;;14.82;72.92
30614;BME280;17381;51.690;5.270;2022-10-22T19:02:24;101438.47;;;14.58;73.05
30614;BME280;17381;51.690;5.270;2022-10-22T19:05:10;101451.25;;;14.72;73.06
30614;BME280;17381;51.690;5.270;2022-10-22T19:08:07;101446.81;;;14.72;73.03
30614;BME280;17381;51.690;5.270;2022-10-22T19:11:00;101393.97;;;14.43;73.17
30614;BME280;17381;51.690;5.270;2022-10-22T19:14:00;101429.31;;;14.68;73.16
30614;BME280;17381;51.690;5.270;2022-10-22T19:17:04;101429.41;;;14.65;73.31
30614;BME280;17381;51.690;5.270;2022-10-22T19:20:03;101428.50;;;14.66;73.42
30614;BME280;17381;51.690;5.270;2022-10-22T19:23:06;101374.91;;;14.33;73.43
30614;BME280;17381;51.690;5.270;2022-10-22T19:25:44;101429.53;;;14.62;73.60
30614;BME280;17381;51.690;5.270;2022-10-22T19:28:28;101426.81;;;14.64;73.61
30614;BME280;17381;51.690;5.270;2022-10-22T19:31:08;101434.84;;;14.60;73.67
30614;BME280;17381;51.690;5.270;2022-10-22T19:33:51;101438.44;;;14.59;73.59
30614;BME280;17381;51.690;5.270;2022-10-22T19:36:45;101434.91;;;14.59;73.71
30614;BME280;17381;51.690;5.270;2022-10-22T19:39:26;101446.38;;;14.59;73.69
30614;BME280;17381;51.690;5.270;2022-10-22T19:42:14;101429.81;;;14.53;73.75
30614;BME280;17381;51.690;5.270;2022-10-22T19:45:10;101434.97;;;14.57;73.74
30614;BME280;17381;51.690;5.270;2022-10-22T19:47:58;101435.00;;;14.56;73.99
30614;BME280;17381;51.690;5.270;2022-10-22T19:50:45;101433.25;;;14.56;73.84
30614;BME280;17381;51.690;5.270;2022-10-22T19:53:24;101418.56;;;14.46;73.82
30614;BME280;17381;51.690;5.270;2022-10-22T19:56:10;101428.91;;;14.54;73.84
30614;BME280;17381;51.690;5.270;2022-10-22T19:59:04;101420.22;;;14.49;73.90
30614;BME280;17381;51.690;5.270;2022-10-22T20:02:02;101433.47;;;14.49;74.24
30614;BME280;17381;51.690;5.270;2022-10-22T20:04:41;101362.72;;;14.01;74.18
30614;BME280;17381;51.690;5.270;2022-10-22T20:07:36;101439.72;;;14.46;74.26
30614;BME280;17381;51.690;5.270;2022-10-22T20:10:20;101436.25;;;14.44;74.12
30614;BME280;17381;51.690;5.270;2022-10-22T20:16:40;101431.16;;;14.38;74.32
30614;BME280;17381;51.690;5.270;2022-10-22T20:19:53;101430.38;;;14.34;74.36
30614;BME280;17381;51.690;5.270;2022-10-22T20:22:36;101419.94;;;14.30;74.28
30614;BME280;17381;51.690;5.270;2022-10-22T20:36:24;101431.72;;;14.19;74.41
30614;BME280;17381;51.690;5.270;2022-10-22T20:49:40;101452.22;;;14.13;75.07
30614;BME280;17381;51.690;5.270;2022-10-22T20:52:46;101448.53;;;14.17;75.13
30614;BME280;17381;51.690;5.270;2022-10-22T20:55:28;101427.00;;;14.01;75.10
30614;BME280;17381;51.690;5.270;2022-10-22T20:58:23;101449.50;;;14.14;75.46
30614;BME280;17381;51.690;5.270;2022-10-22T21:01:20;101448.50;;;14.18;75.27
30614;BME280;17381;51.690;5.270;2022-10-22T21:04:20;101442.41;;;14.16;75.13
30614;BME280;17381;51.690;5.270;2022-10-22T21:07:04;101449.50;;;14.14;75.26
30614;BME280;17381;51.690;5.270;2022-10-22T21:09:42;101427.00;;;14.01;75.42
30614;BME280;17381;51.690;5.270;2022-10-22T21:12:33;101416.91;;;13.86;75.14
30614;BME280;17381;51.690;5.270;2022-10-22T21:15:14;101448.00;;;14.07;75.60
30614;BME280;17381;51.690;5.270;2022-10-22T21:18:03;101453.94;;;14.14;75.55
30614;BME280;17381;51.690;5.270;2022-10-22T21:20:55;101456.53;;;14.15;75.64
30614;BME280;17381;51.690;5.270;2022-10-22T21:23:32;101442.69;;;14.07;75.32
30614;BME280;17381;51.690;5.270;2022-10-22T21:26:05;101445.00;;;14.18;75.52
30614;BME280;17381;51.690;5.270;2022-10-22T21:28:46;101446.88;;;14.14;75.69
30614;BME280;17381;51.690;5.270;2022-10-22T21:31:31;101452.97;;;14.16;75.53
30614;BME280;17381;51.690;5.270;2022-10-22T21:34:11;101417.63;;;13.91;75.39
30614;BME280;17381;51.690;5.270;2022-10-22T21:36:44;101446.97;;;14.11;75.66
30614;BME280;17381;51.690;5.270;2022-10-22T21:39:23;101414.25;;;13.86;75.47
30614;BME280;17381;51.690;5.270;2022-10-22T21:42:28;101468.94;;;14.13;75.32
30614;BME280;17381;51.690;5.270;2022-10-22T21:45:30;101455.00;;;14.08;75.82
30614;BME280;17381;51.690;5.270;2022-10-22T21:48:41;101458.63;;;14.04;75.66
30614;BME280;17381;51.690;5.270;2022-10-22T21:51:21;101453.44;;;14.01;75.66
30614;BME280;17381;51.690;5.270;2022-10-22T21:54:12;101423.31;;;13.79;75.71
30614;BME280;17381;51.690;5.270;2022-10-22T21:56:47;101471.84;;;14.04;75.91
30614;BME280;17381;51.690;5.270;2022-10-22T21:59:30;101457.88;;;14.01;75.86
30614;BME280;17381;51.690;5.270;2022-10-22T22:02:15;101459.53;;;14.05;76.02
30614;BME280;17381;51.690;5.270;2022-10-22T22:04:59;101457.66;;;14.07;76.02
30614;BME280;17381;51.690;5.270;2022-10-22T22:07:47;101454.31;;;14.02;75.88
30614;BME280;17381;51.690;5.270;2022-10-22T22:10:34;101445.47;;;14.03;75.90
30614;BME280;17381;51.690;5.270;2022-10-22T22:13:13;101427.94;;;14.00;76.04
30614;BME280;17381;51.690;5.270;2022-10-22T22:15:57;101437.47;;;14.04;76.19
30614;BME280;17381;51.690;5.270;2022-10-22T22:18:45;101435.75;;;14.03;75.97
30614;BME280;17381;51.690;5.270;2022-10-22T22:21:39;101441.09;;;14.02;75.93
30614;BME280;17381;51.690;5.270;2022-10-22T22:24:19;101426.25;;;13.98;76.40
30614;BME280;17381;51.690;5.270;2022-10-22T22:26:56;101428.84;;;13.99;76.49
30614;BME280;17381;51.690;5.270;2022-10-22T22:29:38;101424.38;;;14.01;76.00
30614;BME280;17381;51.690;5.270;2022-10-22T22:32:16;101427.88;;;14.02;76.39
30614;BME280;17381;51.690;5.270;2022-10-22T22:34:58;101426.97;;;14.03;76.30
30614;BME280;17381;51.690;5.270;2022-10-22T22:37:31;101382.03;;;13.74;76.16
30614;BME280;17381;51.690;5.270;2022-10-22T22:40:05;101429.66;;;14.01;76.07
30614;BME280;17381;51.690;5.270;2022-10-22T22:42:43;101427.13;;;13.98;76.10
30614;BME280;17381;51.690;5.270;2022-10-22T22:45:19;101426.28;;;13.96;76.22
30614;BME280;17381;51.690;5.270;2022-10-22T22:47:52;101432.47;;;13.96;76.23
30614;BME280;17381;51.690;5.270;2022-10-22T22:50:41;101417.50;;;13.95;76.29
30614;BME280;17381;51.690;5.270;2022-10-22T22:53:13;101404.47;;;13.89;76.36
30614;BME280;17381;51.690;5.270;2022-10-22T22:55:49;101406.16;;;13.92;76.02
30614;BME280;17381;51.690;5.270;2022-10-22T22:58:46;101415.00;;;13.91;76.24
30614;BME280;17381;51.690;5.270;2022-10-22T23:01:31;101405.47;;;13.85;76.17
30614;BME280;17381;51.690;5.270;2022-10-22T23:04:13;101404.59;;;13.86;76.37
30614;BME280;17381;51.690;5.270;2022-10-22T23:07:06;101394.31;;;13.75;76.49
30614;BME280;17381;51.690;5.270;2022-10-22T23:14:14;101417.22;;;13.75;76.58
30614;BME280;17381;51.690;5.270;2022-10-22T23:17:59;101417.44;;;13.69;76.59
30614;BME280;17381;51.690;5.270;2022-10-22T23:29:43;101391.41;;;13.55;76.93
30614;BME280;17381;51.690;5.270;2022-10-22T23:36:55;101385.56;;;13.44;77.08
30614;BME280;17381;51.690;5.270;2022-10-22T23:40:47;101333.50;;;13.18;76.76
30614;BME280;17381;51.690;5.270;2022-10-22T23:47:26;101358.53;;;13.36;77.33
30614;BME280;17381;51.690;5.270;2022-10-22T23:54:48;101365.63;;;13.34;77.45
